Time;durP1;ratioP1;P1;durP2;ratioP2;P2;SDS_P1;SDS_P2;PMS_P1;PMS_P2;Temp;Humidity;BMP_temperature;BMP_pressure;BME280_temperature;BME280_humidity;BME280_pressure;Samples;Min_cycle;Max_cycle;Signal;HPM_P1;HPM_P2
2021/04/14 00:02:24;;;;;;;17.77;8.68;;;4.70;75.50;;;;;;5073413;28;20517;-84
2021/04/14 00:04:50;;;;;;;19.75;8.73;;;4.70;75.50;;;;;;5072819;28;20483;-83
2021/04/14 00:07:16;;;;;;;15.48;8.07;;;4.70;76.00;;;;;;5072423;28;20115;-84
2021/04/14 00:09:43;;;;;;;16.83;7.47;;;4.80;76.40;;;;;;5072493;28;20111;-83
2021/04/14 00:12:09;;;;;;;19.38;10.23;;;4.80;75.70;;;;;;5071846;28;20048;-83
2021/04/14 00:14:35;;;;;;;15.68;6.50;;;4.90;75.50;;;;;;5072828;28;20115;-84
2021/04/14 00:17:02;;;;;;;13.80;7.63;;;4.90;75.20;;;;;;5073314;28;20143;-84
2021/04/14 00:19:29;;;;;;;12.20;6.70;;;5.00;74.80;;;;;;5072615;28;20023;-84
2021/04/14 00:21:54;;;;;;;12.55;6.80;;;5.00;74.80;;;;;;5072155;28;20103;-83
2021/04/14 00:24:20;;;;;;;16.10;6.80;;;5.10;74.70;;;;;;5073799;28;20161;-82
2021/04/14 00:26:45;;;;;;;14.57;6.63;;;5.10;74.40;;;;;;5072675;28;20032;-82
2021/04/14 00:29:12;;;;;;;11.98;6.78;;;5.10;74.40;;;;;;5072183;28;20056;-84
2021/04/14 00:31:38;;;;;;;12.43;7.43;;;5.10;74.60;;;;;;5072421;28;20023;-84
2021/04/14 00:34:09;;;;;;;15.00;7.25;;;5.20;74.50;;;;;;5072492;28;20017;-84
2021/04/14 00:36:36;;;;;;;13.93;6.95;;;5.20;74.50;;;;;;5072684;28;20024;-84
2021/04/14 00:39:05;;;;;;;10.65;5.22;;;5.30;74.80;;;;;;5072535;28;20020;-84
2021/04/14 00:41:31;;;;;;;10.55;5.97;;;5.30;74.40;;;;;;5075007;28;20115;-82
2021/04/14 00:43:57;;;;;;;18.85;6.53;;;5.30;74.00;;;;;;5092580;28;20016;-82
2021/04/14 00:46:24;;;;;;;10.40;6.43;;;5.40;74.00;;;;;;5075343;28;20410;-83
2021/04/14 00:48:50;;;;;;;13.93;6.25;;;5.40;73.50;;;;;;5072341;28;20016;-83
2021/04/14 00:51:17;;;;;;;11.70;6.20;;;5.40;73.70;;;;;;5072230;28;20036;-84
2021/04/14 00:53:44;;;;;;;12.38;6.68;;;5.40;73.30;;;;;;5072011;28;20093;-83
2021/04/14 00:56:09;;;;;;;11.40;6.85;;;5.40;72.80;;;;;;5071180;28;20021;-84
2021/04/14 00:58:35;;;;;;;13.10;6.57;;;5.40;72.60;;;;;;5071405;28;20024;-83
2021/04/14 01:01:01;;;;;;;12.00;5.70;;;5.50;72.80;;;;;;5071372;28;20031;-83
2021/04/14 01:03:32;;;;;;;15.02;7.20;;;5.40;72.80;;;;;;5071857;28;20530;-83
2021/04/14 01:06:01;;;;;;;16.60;6.93;;;5.50;73.20;;;;;;5071297;28;20027;-83
2021/04/14 01:08:26;;;;;;;14.88;5.93;;;5.50;73.20;;;;;;5072741;28;20021;-82
2021/04/14 01:10:53;;;;;;;14.82;5.90;;;5.50;73.30;;;;;;5071465;28;20078;-83
2021/04/14 01:13:19;;;;;;;13.07;5.70;;;5.50;73.20;;;;;;5070870;28;20035;-84
2021/04/14 01:15:47;;;;;;;11.32;5.88;;;5.50;73.00;;;;;;5071400;28;20039;-84
2021/04/14 01:18:15;;;;;;;13.30;5.80;;;5.50;72.10;;;;;;5071450;28;20028;-83
2021/04/14 01:20:41;;;;;;;11.13;6.32;;;5.50;72.00;;;;;;5071624;28;20017;-83
2021/04/14 01:23:08;;;;;;;12.27;6.18;;;5.50;72.10;;;;;;5071342;28;20028;-84
2021/04/14 01:25:37;;;;;;;11.90;6.57;;;5.60;72.70;;;;;;5071390;28;20024;-83
2021/04/14 01:28:41;;;;;;;10.10;5.80;;;5.60;72.70;;;;;;5072539;28;20073;-83
2021/04/14 01:31:12;;;;;;;10.68;5.35;;;5.60;71.30;;;;;;5070561;28;20319;-82
2021/04/14 01:33:40;;;;;;;12.65;6.38;;;5.60;70.50;;;;;;5071408;28;20132;-81
2021/04/14 01:36:08;;;;;;;10.25;5.70;;;5.60;70.70;;;;;;5072848;28;20024;-83
2021/04/14 01:38:34;;;;;;;11.00;6.25;;;5.60;70.70;;;;;;5071126;28;20089;-82
2021/04/14 01:41:02;;;;;;;11.18;5.85;;;5.60;70.80;;;;;;5070495;28;20360;-82
2021/04/14 01:43:27;;;;;;;12.85;5.70;;;5.50;70.90;;;;;;5071279;28;20028;-83
2021/04/14 01:45:53;;;;;;;12.95;6.38;;;5.60;71.00;;;;;;5071044;28;20024;-83
2021/04/14 01:48:19;;;;;;;13.43;6.50;;;5.50;71.00;;;;;;5071219;28;20614;-84
2021/04/14 01:50:45;;;;;;;9.23;5.72;;;5.50;71.80;;;;;;5071007;28;20024;-83
2021/04/14 01:53:13;;;;;;;12.23;5.63;;;5.50;71.70;;;;;;5070739;28;20021;-83
2021/04/14 01:55:39;;;;;;;13.63;6.28;;;5.50;72.10;;;;;;5071340;28;20013;-83
2021/04/14 01:58:07;;;;;;;14.82;6.53;;;5.50;71.50;;;;;;5070803;28;20338;-83
2021/04/14 02:00:43;;;;;;;8.90;5.47;;;5.50;71.70;;;;;;5071348;28;20017;-83
2021/04/14 02:03:08;;;;;;;12.82;6.60;;;5.50;71.70;;;;;;5070585;28;20012;-83
2021/04/14 02:05:34;;;;;;;13.98;6.00;;;5.50;72.80;;;;;;5071008;28;20110;-82
2021/04/14 02:08:01;;;;;;;10.55;5.30;;;5.50;72.50;;;;;;5070834;28;20013;-83
2021/04/14 02:10:31;;;;;;;11.27;6.40;;;5.50;72.10;;;;;;5075070;28;20012;-82
2021/04/14 02:12:59;;;;;;;15.45;6.65;;;5.50;72.50;;;;;;5071750;28;20041;-83
2021/04/14 02:15:28;;;;;;;12.38;6.07;;;5.50;72.20;;;;;;5074499;28;20031;-81
2021/04/14 02:17:55;;;;;;;12.63;6.10;;;5.50;71.50;;;;;;5076624;28;20040;-80
2021/04/14 02:20:21;;;;;;;16.35;7.18;;;5.50;72.00;;;;;;5086962;28;20023;-81
2021/04/14 02:22:47;;;;;;;10.85;6.55;;;5.40;71.70;;;;;;5085784;28;20016;-80
2021/04/14 02:25:14;;;;;;;15.27;7.88;;;5.50;71.70;;;;;;5079896;28;20448;-83
2021/04/14 02:27:40;;;;;;;13.90;7.30;;;5.50;72.40;;;;;;5075300;28;20021;-83
2021/04/14 02:30:08;;;;;;;14.00;6.22;;;5.50;72.20;;;;;;5074597;28;20028;-83
2021/04/14 02:32:34;;;;;;;14.18;6.80;;;5.50;71.70;;;;;;5074833;28;20429;-83
2021/04/14 02:35:00;;;;;;;11.32;6.68;;;5.50;72.50;;;;;;5075082;28;20346;-83
2021/04/14 02:37:26;;;;;;;12.25;6.03;;;5.50;71.90;;;;;;5075912;28;20019;-83
2021/04/14 02:39:51;;;;;;;13.02;6.07;;;5.50;72.00;;;;;;5086404;28;20044;-82
2021/04/14 02:42:17;;;;;;;11.25;6.90;;;5.50;72.10;;;;;;5084743;28;20020;-83
2021/04/14 02:44:42;;;;;;;14.40;6.60;;;5.50;71.60;;;;;;5074490;28;20144;-83
2021/04/14 02:47:08;;;;;;;14.27;6.78;;;5.50;72.00;;;;;;5073943;28;20149;-83
2021/04/14 02:49:34;;;;;;;26.27;10.38;;;5.50;71.90;;;;;;5074433;28;20024;-83
2021/04/14 02:51:59;;;;;;;17.60;9.27;;;5.50;71.90;;;;;;5074011;28;20020;-83
2021/04/14 02:54:25;;;;;;;16.98;7.40;;;5.50;71.70;;;;;;5075185;28;20059;-83
2021/04/14 02:56:51;;;;;;;17.13;8.02;;;5.50;71.50;;;;;;5073828;28;20031;-83
2021/04/14 02:59:17;;;;;;;12.85;7.47;;;5.50;71.70;;;;;;5073730;28;20027;-83
2021/04/14 03:01:42;;;;;;;14.02;7.60;;;5.50;71.40;;;;;;5074070;28;20020;-82
2021/04/14 03:04:08;;;;;;;14.82;7.63;;;5.40;71.60;;;;;;5073577;28;20020;-82
2021/04/14 03:06:34;;;;;;;11.52;7.72;;;5.50;72.00;;;;;;5073823;28;20032;-83
2021/04/14 03:09:00;;;;;;;14.07;8.77;;;5.40;71.90;;;;;;5073857;28;20012;-84
2021/04/14 03:11:26;;;;;;;12.75;8.27;;;5.40;71.30;;;;;;5073416;28;20045;-83
2021/04/14 03:13:52;;;;;;;30.75;15.98;;;5.40;71.10;;;;;;5073825;28;20016;-83
2021/04/14 03:16:17;;;;;;;57.13;24.63;;;5.40;71.00;;;;;;5073431;28;20016;-83
2021/04/14 03:18:43;;;;;;;52.38;24.98;;;5.40;71.00;;;;;;5073920;28;20483;-82
2021/04/14 03:21:08;;;;;;;31.38;14.40;;;5.30;70.80;;;;;;5074558;28;20028;-82
2021/04/14 03:23:34;;;;;;;27.17;14.00;;;5.30;70.40;;;;;;5074698;28;20074;-83
2021/04/14 03:26:00;;;;;;;17.50;10.68;;;5.20;70.90;;;;;;5073545;28;20035;-83
2021/04/14 03:28:26;;;;;;;17.48;9.35;;;5.10;71.20;;;;;;5073664;28;20655;-84
2021/04/14 03:30:51;;;;;;;14.38;9.77;;;5.10;71.40;;;;;;5073690;28;20086;-83
2021/04/14 03:33:17;;;;;;;18.27;10.40;;;5.00;71.70;;;;;;5073328;28;20453;-83
2021/04/14 03:35:43;;;;;;;13.60;9.35;;;5.00;71.70;;;;;;5072440;28;20392;-83
2021/04/14 03:38:09;;;;;;;18.20;9.43;;;4.90;72.00;;;;;;5073388;28;20016;-83
2021/04/14 03:40:34;;;;;;;14.48;9.68;;;4.80;72.30;;;;;;5075361;28;20539;-85
2021/04/14 03:43:00;;;;;;;15.38;10.23;;;4.80;72.80;;;;;;5073821;28;20099;-84
2021/04/14 03:45:37;;;;;;;18.92;10.63;;;4.80;72.90;;;;;;5074659;28;20029;-84
2021/04/14 03:48:04;;;;;;;15.82;9.85;;;4.70;72.90;;;;;;5073209;28;20078;-84
2021/04/14 03:50:30;;;;;;;20.95;11.25;;;4.70;73.00;;;;;;5074272;28;20044;-83
2021/04/14 03:53:14;;;;;;;15.85;10.43;;;4.60;73.10;;;;;;5073058;28;20020;-84
2021/04/14 03:55:41;;;;;;;15.75;10.32;;;4.60;73.10;;;;;;5073062;28;20065;-83
2021/04/14 03:58:06;;;;;;;18.80;10.45;;;4.60;73.50;;;;;;5074224;28;20111;-84
2021/04/14 04:00:32;;;;;;;15.60;9.80;;;4.60;73.60;;;;;;5072960;28;20021;-84
2021/04/14 04:02:58;;;;;;;17.63;10.95;;;4.60;74.00;;;;;;5072939;28;20029;-84
2021/04/14 04:05:23;;;;;;;14.60;9.80;;;4.60;74.10;;;;;;5072608;28;20024;-84
2021/04/14 04:07:49;;;;;;;17.88;10.15;;;4.60;74.10;;;;;;5074356;28;20025;-83
2021/04/14 04:10:15;;;;;;;17.00;10.40;;;4.50;75.00;;;;;;5072578;28;20036;-84
2021/04/14 04:12:41;;;;;;;17.92;10.82;;;4.50;74.30;;;;;;5073545;28;20040;-84
2021/04/14 04:15:12;;;;;;;17.05;10.52;;;4.50;73.90;;;;;;5072923;28;20107;-82
2021/04/14 04:17:37;;;;;;;20.02;10.05;;;4.50;73.90;;;;;;5071961;28;20099;-83
2021/04/14 04:20:05;;;;;;;15.38;10.10;;;4.50;74.10;;;;;;5073468;28;20055;-84
2021/04/14 04:22:31;;;;;;;5.65;3.42;;;4.50;73.80;;;;;;5072882;28;20035;-84
2021/04/14 04:24:56;;;;;;;11.70;6.68;;;4.60;79.60;;;;;;5073132;28;20028;-83
2021/04/14 04:27:22;;;;;;;15.27;8.40;;;4.50;83.90;;;;;;5073518;28;20028;-83
2021/04/14 04:29:47;;;;;;;17.38;9.02;;;4.60;81.80;;;;;;5071830;28;20025;-84
2021/04/14 04:32:13;;;;;;;15.38;9.25;;;4.50;77.20;;;;;;5072100;28;20406;-84
2021/04/14 04:34:41;;;;;;;19.95;10.10;;;4.50;76.20;;;;;;5072924;28;20028;-84
2021/04/14 04:37:07;;;;;;;14.85;9.30;;;4.60;75.80;;;;;;5083997;28;20107;-83
2021/04/14 04:39:33;;;;;;;15.77;9.02;;;4.60;75.80;;;;;;5076756;28;20024;-83
2021/04/14 04:41:59;;;;;;;14.15;8.52;;;4.60;75.80;;;;;;5052891;28;20088;-83
2021/04/14 04:44:24;;;;;;;18.27;8.93;;;4.60;75.50;;;;;;5050869;28;20450;-83
2021/04/14 04:46:50;;;;;;;14.75;8.68;;;4.60;75.60;;;;;;5050513;28;20025;-83
2021/04/14 04:49:16;;;;;;;15.00;8.40;;;4.70;75.10;;;;;;5050957;28;20112;-83
2021/04/14 04:51:41;;;;;;;17.00;8.68;;;4.70;75.20;;;;;;5052539;28;20079;-83
2021/04/14 04:54:07;;;;;;;15.65;8.85;;;4.70;75.40;;;;;;5050972;28;20043;-84
2021/04/14 04:56:32;;;;;;;16.77;8.80;;;4.60;75.40;;;;;;5052074;28;20067;-84
2021/04/14 04:58:58;;;;;;;20.48;9.60;;;4.70;75.60;;;;;;5051023;28;20021;-84
2021/04/14 05:01:24;;;;;;;15.88;7.97;;;4.70;75.50;;;;;;5050664;28;20020;-83
2021/04/14 05:03:53;;;;;;;14.63;8.18;;;4.70;75.70;;;;;;5051159;28;20453;-84
2021/04/14 05:06:19;;;;;;;15.00;8.70;;;4.70;75.80;;;;;;5050619;28;20079;-83
2021/04/14 05:08:45;;;;;;;18.80;9.02;;;4.70;76.00;;;;;;5051010;28;20024;-84
2021/04/14 05:11:10;;;;;;;16.17;8.90;;;4.80;75.60;;;;;;5030547;28;575167;-84
2021/04/14 05:13:36;;;;;;;22.10;9.30;;;4.80;75.70;;;;;;5051865;28;20457;-84
2021/04/14 05:16:02;;;;;;;14.50;8.48;;;4.80;75.70;;;;;;5053430;28;20496;-84
2021/04/14 05:18:30;;;;;;;15.95;9.23;;;4.90;76.00;;;;;;5052944;28;20104;-84
2021/04/14 05:20:56;;;;;;;18.38;9.85;;;4.90;75.70;;;;;;5051599;28;20032;-84
2021/04/14 05:23:22;;;;;;;15.45;9.18;;;5.00;75.40;;;;;;5050908;28;20025;-84
2021/04/14 05:25:47;;;;;;;20.48;9.32;;;5.10;75.50;;;;;;5051780;28;20017;-84
2021/04/14 05:28:17;;;;;;;18.58;8.13;;;5.10;75.10;;;;;;5051244;28;20381;-84
2021/04/14 05:30:42;;;;;;;14.85;8.98;;;5.20;74.60;;;;;;5052557;28;20346;-84
2021/04/14 05:33:10;;;;;;;23.45;12.35;;;5.30;74.30;;;;;;5051087;28;20453;-84
2021/04/14 05:35:37;;;;;;;16.90;9.75;;;5.40;74.20;;;;;;5056395;28;20043;-83
2021/04/14 05:38:03;;;;;;;19.33;10.85;;;5.40;73.70;;;;;;5056685;28;20071;-85
2021/04/14 05:40:29;;;;;;;20.95;10.18;;;5.50;73.50;;;;;;5065970;28;20120;-84
2021/04/14 05:42:55;;;;;;;17.20;9.93;;;5.60;73.70;;;;;;5071363;28;20103;-84
2021/04/14 05:45:24;;;;;;;21.58;9.73;;;5.70;73.60;;;;;;5070789;28;20024;-84
2021/04/14 05:47:49;;;;;;;20.30;9.60;;;5.80;73.10;;;;;;5071205;28;20411;-85
2021/04/14 05:50:18;;;;;;;18.08;8.82;;;5.80;73.30;;;;;;5070644;28;20453;-85
2021/04/14 05:52:44;;;;;;;16.58;9.45;;;6.00;72.40;;;;;;5070839;28;20028;-85
2021/04/14 05:55:11;;;;;;;24.33;9.73;;;6.10;71.70;;;;;;5071897;28;20025;-84
2021/04/14 05:57:37;;;;;;;17.30;10.20;;;6.20;71.80;;;;;;5070615;28;20017;-85
2021/04/14 06:00:06;;;;;;;14.57;8.88;;;6.30;71.40;;;;;;5073631;28;20061;-84
2021/04/14 06:02:32;;;;;;;14.27;9.93;;;6.30;71.00;;;;;;5074764;28;20418;-85
2021/04/14 06:04:58;;;;;;;16.38;9.75;;;6.40;70.90;;;;;;5075012;28;20028;-85
2021/04/14 06:07:24;;;;;;;17.90;9.63;;;6.50;70.80;;;;;;5074242;28;20028;-85
2021/04/14 06:09:51;;;;;;;14.65;9.73;;;6.50;70.70;;;;;;5074542;28;20100;-85
2021/04/14 06:12:17;;;;;;;17.88;9.82;;;6.60;70.10;;;;;;5074359;28;20047;-85
2021/04/14 06:14:42;;;;;;;16.23;10.48;;;6.60;69.70;;;;;;5074876;28;20009;-84
2021/04/14 06:17:08;;;;;;;17.92;10.63;;;6.60;69.70;;;;;;5079246;28;20060;-84
2021/04/14 06:19:35;;;;;;;15.95;10.07;;;6.60;69.90;;;;;;5077632;28;20021;-85
2021/04/14 06:22:01;;;;;;;15.75;10.07;;;6.70;69.70;;;;;;5078075;28;20027;-84
2021/04/14 06:24:26;;;;;;;16.23;9.55;;;6.90;69.40;;;;;;5076759;28;20021;-84
2021/04/14 06:26:56;;;;;;;15.85;9.30;;;6.90;69.50;;;;;;5076762;28;20031;-84
2021/04/14 06:29:21;;;;;;;14.35;9.30;;;6.90;69.30;;;;;;5077171;28;20021;-85
2021/04/14 06:31:47;;;;;;;18.88;10.05;;;7.00;69.30;;;;;;5077240;28;20024;-84
2021/04/14 06:34:20;;;;;;;19.23;11.38;;;7.00;69.60;;;;;;5074756;28;20399;-84
2021/04/14 06:36:48;;;;;;;20.27;10.77;;;7.00;69.90;;;;;;5075551;28;20113;-84
2021/04/14 06:39:16;;;;;;;17.65;11.55;;;7.10;69.70;;;;;;5071262;28;20024;-83
2021/04/14 06:44:37;;;;;;;18.15;11.02;;;7.20;69.70;;;;;;5057119;28;20036;-83
2021/04/14 06:47:11;;;;;;;20.17;11.80;;;7.30;69.80;;;;;;5055163;28;20029;-84
2021/04/14 06:49:49;;;;;;;17.40;10.90;;;7.30;69.30;;;;;;5054998;28;20024;-84
2021/04/14 06:52:40;;;;;;;17.38;10.90;;;7.40;69.20;;;;;;5056240;28;20381;-84
2021/04/14 06:55:10;;;;;;;20.10;11.80;;;7.50;68.50;;;;;;5054645;28;20021;-85
2021/04/14 06:57:40;;;;;;;17.30;11.60;;;7.60;68.10;;;;;;5057472;28;20024;-85
2021/04/14 07:00:17;;;;;;;20.88;12.65;;;7.70;67.30;;;;;;5060144;28;20027;-85
2021/04/14 07:02:51;;;;;;;20.17;11.55;;;7.70;66.70;;;;;;5057464;28;20017;-85
2021/04/14 07:05:21;;;;;;;21.35;11.80;;;7.80;66.00;;;;;;5056488;28;20025;-86
2021/04/14 07:07:50;;;;;;;19.90;11.60;;;7.80;65.80;;;;;;5055045;28;20513;-85
2021/04/14 07:10:30;;;;;;;16.02;11.02;;;7.80;65.30;;;;;;5058291;28;20023;-85
2021/04/14 07:13:00;;;;;;;16.42;10.55;;;8.00;65.40;;;;;;5057846;28;20045;-84
2021/04/14 07:15:26;;;;;;;;;;;8.20;64.90;;;;;;5056616;28;20028;-83
2021/04/14 07:18:07;;;;;;;19.95;10.38;;;8.40;65.00;;;;;;5058082;28;19949;-86
2021/04/14 07:20:47;;;;;;;18.92;11.63;;;8.50;63.50;;;;;;5058171;28;20029;-85
2021/04/14 07:23:31;;;;;;;16.15;10.75;;;8.60;63.50;;;;;;5062921;28;20028;-85
2021/04/14 07:26:24;;;;;;;18.25;12.00;;;8.60;63.30;;;;;;5061911;28;20025;-85
2021/04/14 07:28:56;;;;;;;15.35;10.60;;;8.50;64.60;;;;;;5056422;28;20111;-84
2021/04/14 07:31:44;;;;;;;17.98;11.25;;;8.40;64.30;;;;;;5054745;28;20025;-84
2021/04/14 07:34:24;;;;;;;18.02;11.40;;;8.30;63.10;;;;;;5054880;28;20116;-85
2021/04/14 07:37:02;;;;;;;14.48;9.85;;;8.30;63.90;;;;;;5056133;28;20029;-85
2021/04/14 07:39:46;;;;;;;17.55;10.07;;;8.20;64.80;;;;;;5054256;28;20017;-85
2021/04/14 07:42:45;;;;;;;13.43;8.82;;;8.20;64.00;;;;;;5054347;28;20039;-85
2021/04/14 07:45:19;;;;;;;17.65;8.82;;;8.10;63.20;;;;;;5055584;28;20028;-85
2021/04/14 07:47:58;;;;;;;15.40;9.13;;;7.80;61.90;;;;;;5055704;28;20053;-86
2021/04/14 07:50:36;;;;;;;18.58;10.32;;;7.80;62.50;;;;;;5055049;28;20103;-85
2021/04/14 07:53:02;;;;;;;19.05;10.88;;;7.70;63.50;;;;;;5054929;28;20057;-84
2021/04/14 07:55:33;;;;;;;16.20;10.48;;;7.70;65.20;;;;;;5054702;28;20416;-85
2021/04/14 07:58:14;;;;;;;16.25;10.70;;;7.70;66.00;;;;;;5057537;28;20108;-87
2021/04/14 08:00:43;;;;;;;17.08;10.35;;;7.60;64.60;;;;;;5055089;28;20024;-83
2021/04/14 08:03:17;;;;;;;19.52;10.25;;;7.50;64.80;;;;;;5060951;28;20112;-86
2021/04/14 08:05:43;;;;;;;17.52;10.43;;;7.30;65.40;;;;;;5066068;28;20021;-88
2021/04/14 08:08:35;;;;;;;16.13;10.10;;;7.20;66.20;;;;;;5067032;28;20527;-87
2021/04/14 08:11:11;;;;;;;16.40;10.43;;;7.10;67.30;;;;;;5065658;28;20089;-85
2021/04/14 08:13:41;;;;;;;20.02;9.98;;;7.20;67.80;;;;;;5076952;28;20017;-84
2021/04/14 08:16:33;;;;;;;17.08;9.80;;;7.50;68.90;;;;;;5076667;28;20021;-86
2021/04/14 08:19:22;;;;;;;17.02;10.00;;;7.90;67.50;;;;;;5067956;28;20369;-87
2021/04/14 08:22:02;;;;;;;19.55;10.45;;;8.40;67.10;;;;;;5057484;28;20062;-87
2021/04/14 08:24:30;;;;;;;17.70;9.82;;;9.00;66.60;;;;;;5052816;28;20074;-87
2021/04/14 08:27:02;;;;;;;16.70;9.30;;;9.50;63.90;;;;;;5052355;28;20032;-86
2021/04/14 08:29:28;;;;;;;16.20;9.65;;;9.80;62.70;;;;;;5052106;28;20009;-85
2021/04/14 08:31:56;;;;;;;12.45;7.10;;;10.10;61.60;;;;;;5052158;28;20450;-86
2021/04/14 08:34:34;;;;;;;18.58;11.93;;;10.40;62.70;;;;;;5051816;28;20078;-87
2021/04/14 08:37:16;;;;;;;21.05;10.13;;;10.60;60.00;;;;;;5052360;28;20163;-87
2021/04/14 08:39:53;;;;;;;15.07;8.43;;;10.70;58.10;;;;;;5052173;28;20330;-85
2021/04/14 08:42:25;;;;;;;15.45;9.35;;;10.60;59.20;;;;;;5051339;28;20023;-85
2021/04/14 08:45:11;;;;;;;16.02;10.00;;;10.30;58.60;;;;;;5051732;28;20470;-85
2021/04/14 08:47:43;;;;;;;18.42;10.35;;;10.10;59.90;;;;;;5051744;28;20029;-84
2021/04/14 08:50:16;;;;;;;16.33;10.27;;;10.00;59.10;;;;;;5056833;28;20109;-83
2021/04/14 08:52:44;;;;;;;16.70;9.82;;;9.90;57.90;;;;;;5053753;28;20468;-84
2021/04/14 08:55:12;;;;;;;17.42;11.73;;;9.80;56.50;;;;;;5053872;28;20033;-85
2021/04/14 08:57:38;;;;;;;17.52;9.35;;;9.70;57.20;;;;;;5051759;28;20461;-83
2021/04/14 09:00:06;;;;;;;17.48;11.25;;;9.70;57.00;;;;;;5053513;28;20025;-85
2021/04/14 09:02:34;;;;;;;18.75;10.43;;;9.60;57.70;;;;;;5053450;28;20025;-84
2021/04/14 09:05:02;;;;;;;16.80;10.80;;;9.40;57.40;;;;;;5054459;28;20021;-84
2021/04/14 09:07:38;;;;;;;17.05;11.20;;;9.30;57.60;;;;;;5053876;28;20024;-84
2021/04/14 09:10:09;;;;;;;19.10;12.55;;;9.30;60.90;;;;;;5053367;28;20021;-84
2021/04/14 09:12:42;;;;;;;18.20;11.60;;;9.30;59.20;;;;;;5052041;28;20374;-84
2021/04/14 09:15:11;;;;;;;20.23;12.82;;;9.30;60.70;;;;;;5053763;28;20088;-84
2021/04/14 09:17:38;;;;;;;18.77;11.55;;;9.50;60.70;;;;;;5052736;28;20048;-84
2021/04/14 09:20:26;;;;;;;18.48;12.02;;;9.80;62.00;;;;;;5052268;28;20017;-84
2021/04/14 09:23:09;;;;;;;20.35;12.05;;;10.00;62.60;;;;;;5052827;28;20024;-85
2021/04/14 09:25:40;;;;;;;17.80;11.38;;;10.30;61.00;;;;;;5053170;28;20029;-85
2021/04/14 09:28:07;;;;;;;15.98;11.38;;;10.30;59.40;;;;;;5054728;28;20457;-84
2021/04/14 09:30:32;;;;;;;18.77;13.23;;;10.40;60.00;;;;;;5053850;28;20477;-85
2021/04/14 09:33:07;;;;;;;17.65;11.93;;;10.40;58.30;;;;;;5053838;28;20025;-84
2021/04/14 09:35:32;;;;;;;17.88;12.20;;;10.30;59.40;;;;;;5051013;28;20116;-85
2021/04/14 09:38:34;;;;;;;20.10;13.05;;;10.30;58.60;;;;;;5053469;28;20110;-81
2021/04/14 09:41:23;;;;;;;20.77;15.35;;;9.90;58.70;;;;;;5051617;28;20017;-82
2021/04/14 09:43:52;;;;;;;21.17;13.38;;;9.60;59.40;;;;;;5051444;28;20013;-79
2021/04/14 09:46:34;;;;;;;20.48;13.27;;;9.30;59.90;;;;;;5051981;28;20082;-82
2021/04/14 09:49:15;;;;;;;19.65;13.85;;;9.10;61.10;;;;;;5052159;28;20021;-79
2021/04/14 09:51:57;;;;;;;20.85;13.60;;;8.80;61.70;;;;;;5051759;28;20070;-81
2021/04/14 09:54:30;;;;;;;24.58;15.73;;;8.50;62.70;;;;;;5052392;28;20044;-80
2021/04/14 09:56:58;;;;;;;24.13;13.45;;;8.40;65.40;;;;;;5051105;28;20028;-79
2021/04/14 09:59:38;;;;;;;19.67;12.13;;;8.20;66.60;;;;;;5050872;28;20104;-78
2021/04/14 10:02:07;;;;;;;;;;;8.00;68.00;;;;;;5051607;28;20012;-83
2021/04/14 10:04:36;;;;;;;19.08;13.38;;;7.80;66.70;;;;;;5050815;28;20329;-80
2021/04/14 10:07:12;;;;;;;20.27;12.38;;;7.60;67.90;;;;;;5051642;28;20009;-85
2021/04/14 10:09:37;;;;;;;20.50;14.13;;;7.50;69.40;;;;;;5050649;28;20120;-82
2021/04/14 10:12:19;;;;;;;20.00;13.13;;;7.40;69.50;;;;;;5051861;28;20072;-85
2021/04/14 10:14:50;;;;;;;23.98;13.98;;;7.40;71.70;;;;;;5052185;28;20207;-82
2021/04/14 10:17:20;;;;;;;;;;;7.40;70.90;;;;;;5052723;28;20120;-87
2021/04/14 10:19:52;;;;;;;20.20;13.05;;;7.40;71.50;;;;;;5052626;28;20312;-82
2021/04/14 10:22:40;;;;;;;21.83;14.68;;;7.40;71.00;;;;;;5052121;28;20017;-82
2021/04/14 10:25:32;;;;;;;24.67;14.20;;;7.40;71.00;;;;;;5053061;28;20110;-84
2021/04/14 10:28:05;;;;;;;22.10;13.60;;;7.40;71.10;;;;;;5073465;28;20021;-83
2021/04/14 10:30:34;;;;;;;20.75;12.38;;;7.50;70.20;;;;;;5051141;28;20017;-84
2021/04/14 10:33:17;;;;;;;19.90;11.75;;;7.70;69.00;;;;;;5050404;28;20020;-84
2021/04/14 10:35:43;;;;;;;18.52;12.32;;;7.80;68.10;;;;;;5050785;28;20120;-84
2021/04/14 10:38:08;;;;;;;17.10;11.23;;;7.90;66.20;;;;;;5050235;28;20196;-84
2021/04/14 10:40:40;;;;;;;20.80;13.20;;;8.00;64.60;;;;;;5051208;28;20034;-83
2021/04/14 10:43:33;;;;;;;21.02;13.60;;;8.10;65.50;;;;;;5050865;28;20017;-84
2021/04/14 10:46:10;;;;;;;17.55;11.88;;;8.20;67.40;;;;;;5051241;28;20037;-88
2021/04/14 10:48:49;;;;;;;16.73;11.80;;;8.30;64.90;;;;;;5054612;28;20360;-80
2021/04/14 10:51:25;;;;;;;19.67;11.27;;;8.30;63.70;;;;;;5054068;28;20013;-87
2021/04/14 10:53:54;;;;;;;15.13;9.32;;;8.40;65.70;;;;;;5066760;28;20407;-84
2021/04/14 10:56:29;;;;;;;16.73;10.50;;;8.40;64.50;;;;;;5074639;28;20465;-85
2021/04/14 10:58:56;;;;;;;15.68;10.52;;;8.30;62.60;;;;;;5074816;28;20522;-84
2021/04/14 11:01:42;;;;;;;19.15;11.48;;;8.20;62.90;;;;;;5072667;28;20027;-84
2021/04/14 11:04:38;;;;;;;17.95;10.80;;;8.20;63.70;;;;;;5073275;28;20020;-83
2021/04/14 11:07:12;;;;;;;17.75;10.45;;;8.10;62.80;;;;;;5073628;28;20029;-82
2021/04/14 11:09:41;;;;;;;16.48;10.82;;;8.10;63.70;;;;;;5073270;28;20024;-82
2021/04/14 11:12:12;;;;;;;14.40;9.52;;;8.10;63.60;;;;;;5073350;28;20040;-82
2021/04/14 11:14:40;;;;;;;16.00;9.10;;;8.00;63.30;;;;;;5073269;28;20199;-79
2021/04/14 11:17:07;;;;;;;15.77;9.85;;;8.00;63.90;;;;;;5073508;28;20482;-82
2021/04/14 11:19:34;;;;;;;16.08;9.95;;;8.00;65.10;;;;;;5073399;28;20386;-83
2021/04/14 11:22:11;;;;;;;18.38;9.57;;;8.10;66.90;;;;;;5073749;28;20533;-83
2021/04/14 11:24:48;;;;;;;13.82;8.60;;;8.10;65.40;;;;;;5073424;28;20467;-88
2021/04/14 11:27:18;;;;;;;15.15;10.05;;;8.20;65.30;;;;;;5074145;28;20449;-86
2021/04/14 11:29:44;;;;;;;;;;;8.20;63.60;;;;;;5074094;28;20058;-87
2021/04/14 11:32:25;;;;;;;20.80;8.70;;;8.30;63.50;;;;;;5073740;28;19900;-86
2021/04/14 11:35:05;;;;;;;14.27;9.23;;;8.40;62.40;;;;;;5073835;28;20036;-85
2021/04/14 11:37:37;;;;;;;15.38;9.27;;;8.60;62.00;;;;;;5073714;28;20532;-85
2021/04/14 11:40:31;;;;;;;13.60;9.35;;;8.70;61.90;;;;;;5074281;28;20032;-84
2021/04/14 11:42:56;;;;;;;18.52;9.25;;;9.00;62.30;;;;;;5074590;28;20100;-84
2021/04/14 11:45:32;;;;;;;15.32;9.20;;;9.40;60.00;;;;;;5074071;28;20111;-84
2021/04/14 11:48:16;;;;;;;13.48;9.88;;;9.60;59.40;;;;;;5074060;28;20027;-84
2021/04/14 11:50:44;;;;;;;14.30;9.38;;;10.10;57.50;;;;;;5074269;28;20020;-84
2021/04/14 11:53:29;;;;;;;13.90;8.75;;;10.70;57.40;;;;;;5074462;28;20048;-85
2021/04/14 11:55:56;;;;;;;11.38;6.22;;;11.30;55.60;;;;;;5074749;28;20032;-82
2021/04/14 11:58:37;;;;;;;11.93;8.50;;;11.60;57.10;;;;;;5075779;28;20009;-84
2021/04/14 12:01:04;;;;;;;11.88;8.07;;;11.70;53.80;;;;;;5069620;28;20024;-80
2021/04/14 12:03:41;;;;;;;15.15;8.40;;;12.00;54.60;;;;;;5066381;28;20051;-83
2021/04/14 12:06:07;;;;;;;11.43;5.70;;;12.30;52.60;;;;;;5064772;28;20047;-79
2021/04/14 12:08:33;;;;;;;9.07;5.20;;;12.40;56.00;;;;;;5072742;28;20081;-80
2021/04/14 12:11:01;;;;;;;14.73;8.88;;;12.40;53.90;;;;;;5072300;28;20511;-81
2021/04/14 12:13:28;;;;;;;11.27;8.10;;;12.50;54.20;;;;;;5072689;28;20020;-82
2021/04/14 12:15:54;;;;;;;12.00;7.97;;;12.70;54.20;;;;;;5072839;28;20407;-83
2021/04/14 12:18:20;;;;;;;10.23;6.25;;;13.10;50.10;;;;;;5072929;28;20023;-82
2021/04/14 12:20:47;;;;;;;10.85;7.45;;;13.60;51.70;;;;;;5072328;28;20032;-81
2021/04/14 12:23:13;;;;;;;13.13;6.78;;;14.10;48.10;;;;;;5073898;28;20453;-80
2021/04/14 12:25:40;;;;;;;10.05;6.53;;;14.40;47.00;;;;;;5075272;28;20024;-81
2021/04/14 12:28:07;;;;;;;11.05;7.35;;;14.30;45.60;;;;;;5074107;28;20032;-80
2021/04/14 12:30:33;;;;;;;11.23;7.32;;;13.90;44.70;;;;;;5072026;28;20021;-80
2021/04/14 12:32:58;;;;;;;12.18;7.47;;;13.40;44.80;;;;;;5073200;28;20028;-81
2021/04/14 12:35:25;;;;;;;10.80;7.20;;;13.00;45.50;;;;;;5072120;28;20032;-80
2021/04/14 12:37:52;;;;;;;12.05;7.85;;;12.60;50.70;;;;;;5071890;28;20368;-81
2021/04/14 12:40:17;;;;;;;11.82;7.03;;;12.40;50.30;;;;;;5072891;28;20016;-80
2021/04/14 12:42:44;;;;;;;11.13;7.28;;;12.10;47.60;;;;;;5072567;28;20028;-79
2021/04/14 12:45:36;;;;;;;12.38;6.78;;;12.10;51.50;;;;;;5071159;28;20031;-80
2021/04/14 12:48:04;;;;;;;12.25;7.75;;;12.00;49.30;;;;;;5072443;28;20032;-82
2021/04/14 12:50:29;;;;;;;12.48;7.35;;;12.30;49.10;;;;;;5071167;28;20035;-82
2021/04/14 12:52:59;;;;;;;12.65;7.63;;;12.80;46.50;;;;;;5066503;28;20462;-79
2021/04/14 12:55:39;;;;;;;10.25;6.68;;;13.00;46.50;;;;;;5052408;28;20078;-81
2021/04/14 12:58:08;;;;;;;11.02;6.68;;;12.90;49.30;;;;;;5052813;28;20025;-81
2021/04/14 13:00:33;;;;;;;9.05;5.05;;;12.70;49.00;;;;;;5051209;28;20021;-81
2021/04/14 13:03:25;;;;;;;10.15;4.82;;;12.70;50.10;;;;;;5051485;28;20364;-80